Time;durP1;ratioP1;P1;durP2;ratioP2;P2;SDS_P1;SDS_P2;PMS_P1;PMS_P2;Temp;Humidity;BMP_temperature;BMP_pressure;BME280_temperature;BME280_humidity;BME280_pressure;Samples;Min_cycle;Max_cycle;Signal;HPM_P1;HPM_P2
2021/04/01 00:01:15;;;;;;;62.58;30.70;;;;;;;;;;5072571;28;20107;-81
2021/04/01 00:03:47;;;;;;;55.17;29.55;;;;;;;;;;5091137;28;20114;-81
2021/04/01 00:06:17;;;;;;;56.33;29.20;;;;;;;;;;5086085;28;20052;-81
2021/04/01 00:08:43;;;;;;;53.72;28.20;;;;;;;;;;5084150;28;20056;-81
2021/04/01 00:11:12;;;;;;;63.28;29.27;;;;;;;;;;5084978;28;20059;-82
2021/04/01 00:13:41;;;;;;;59.22;31.08;;;;;;;;;;5084247;28;20080;-82
2021/04/01 00:16:08;;;;;;;57.60;30.58;;;;;;;;;;5074497;28;20045;-81
2021/04/01 00:18:45;;;;;;;52.95;28.23;;;;;;;;;;5092097;28;20040;-82
2021/04/01 00:21:16;;;;;;;56.63;30.27;;;;;;;;;;5078136;28;20174;-81
2021/04/01 00:23:42;;;;;;;61.47;29.60;;;;;;;;;;5076801;28;20122;-82
2021/04/01 00:26:09;;;;;;;59.92;30.00;;;;;;;;;;5076791;28;20048;-82
2021/04/01 00:28:41;;;;;;;66.88;29.73;;;;;;;;;;5058883;28;20059;-82
2021/04/01 00:31:10;;;;;;;56.35;29.17;;;;;;;;;;5073797;28;20041;-81
2021/04/01 00:33:36;;;;;;;62.10;30.40;;;;;;;;;;5077812;28;20328;-82
2021/04/01 00:36:02;;;;;;;65.20;30.55;;;;;;;;;;5058167;28;20076;-81
2021/04/01 00:38:33;;;;;;;60.75;30.98;;;;;;;;;;5078006;28;20098;-81
2021/04/01 00:41:00;;;;;;;64.95;31.20;;;;;;;;;;5078058;28;20164;-82
2021/04/01 00:43:29;;;;;;;59.85;31.23;;;;;;;;;;5060066;28;20068;-82
2021/04/01 00:45:55;;;;;;;57.17;30.33;;;;;;;;;;5059122;28;20387;-81
2021/04/01 00:48:21;;;;;;;63.53;31.40;;;;;;;;;;5077865;28;20181;-81
2021/04/01 00:50:48;;;;;;;58.70;30.58;;;;;;;;;;5077703;28;20056;-81
2021/04/01 00:53:17;;;;;;;58.30;31.08;;;;;;;;;;5075922;28;20379;-82
2021/04/01 00:55:43;;;;;;;56.50;28.67;;;;;;;;;;5059631;28;20044;-82
2021/04/01 00:58:11;;;;;;;58.85;30.63;;;;;;;;;;5072070;28;20044;-82
2021/04/01 01:00:41;;;;;;;57.38;29.88;;;;;;;;;;5075720;28;20092;-82
2021/04/01 01:03:07;;;;;;;56.90;29.50;;;;;;;;;;5062845;28;20076;-82
2021/04/01 01:05:35;;;;;;;54.33;29.55;;;;;;;;;;5077200;28;20320;-82
2021/04/01 01:08:02;;;;;;;62.45;31.00;;;;;;;;;;5081728;28;20371;-81
2021/04/01 01:10:31;;;;;;;65.90;31.30;;;;;;;;;;5075832;28;20379;-81
2021/04/01 01:12:57;;;;;;;60.38;30.83;;;;;;;;;;5083582;28;20071;-82
2021/04/01 01:15:28;;;;;;;62.97;31.55;;;;;;;;;;5076950;28;20052;-82
2021/04/01 01:17:55;;;;;;;62.53;32.17;;;;;;;;;;5077302;28;20436;-82
2021/04/01 01:20:22;;;;;;;59.63;31.27;;;;;;;;;;5077512;28;20317;-81
2021/04/01 01:23:07;;;;;;;;;;;;;;;;;;5078142;28;20088;-82
2021/04/01 01:25:35;;;;;;;65.68;31.42;;;;;;;;;;5077805;28;19920;-82
2021/04/01 01:28:03;;;;;;;57.70;31.55;;;;;;;;;;5058408;28;20352;-82
2021/04/01 01:30:29;;;;;;;62.10;31.73;;;;;;;;;;5076279;28;20044;-82
2021/04/01 01:33:01;;;;;;;55.92;30.33;;;;;;;;;;5058745;28;20056;-81
2021/04/01 01:35:33;;;;;;;59.30;31.63;;;;;;;;;;5060494;28;20420;-82
2021/04/01 01:38:00;;;;;;;61.55;33.58;;;;;;;;;;5059418;28;20401;-81
2021/04/01 01:40:27;;;;;;;61.30;33.42;;;;;;;;;;5060546;28;20048;-81
2021/04/01 01:42:55;;;;;;;66.25;34.85;;;;;;;;;;5076044;28;20062;-81
2021/04/01 01:45:20;;;;;;;63.13;34.10;;;;;;;;;;5077193;28;20083;-81
2021/04/01 01:47:47;;;;;;;63.35;34.83;;;;;;;;;;5077900;28;20079;-81
2021/04/01 01:50:15;;;;;;;66.22;33.42;;;;;;;;;;5078228;28;20082;-81
2021/04/01 01:52:41;;;;;;;71.57;36.75;;;;;;;;;;5078661;28;20056;-81
2021/04/01 01:55:10;;;;;;;69.63;36.55;;;;;;;;;;5078254;28;20048;-81
2021/04/01 01:57:40;;;;;;;80.72;40.47;;;;;;;;;;5076898;28;20087;-81
2021/04/01 02:00:18;;;;;;;74.05;38.70;;;;;;;;;;5058786;28;20060;-81
2021/04/01 02:03:14;;;;;;;70.45;37.67;;;;;;;;;;5058009;28;20060;-81
2021/04/01 02:05:40;;;;;;;79.07;39.45;;;;;;;;;;5054751;28;20076;-82
2021/04/01 02:08:10;;;;;;;74.05;38.40;;;;;;;;;;5058956;28;20082;-81
2021/04/01 02:10:46;;;;;;;68.78;37.58;;;;;;;;;;5058267;28;20139;-82
2021/04/01 02:13:19;;;;;;;79.90;41.50;;;;;;;;;;5076397;28;20064;-81
2021/04/01 02:15:47;;;;;;;70.13;37.85;;;;;;;;;;5057379;28;20297;-81
2021/04/01 02:18:18;;;;;;;71.47;38.25;;;;;;;;;;5074790;28;20059;-81
2021/04/01 02:20:46;;;;;;;74.78;39.15;;;;;;;;;;5057215;28;20048;-81
2021/04/01 02:23:24;;;;;;;77.30;39.28;;;;;;;;;;5075592;28;20296;-81
2021/04/01 02:25:51;;;;;;;70.80;40.42;;;;;;;;;;5083813;28;20077;-81
2021/04/01 02:28:21;;;;;;;74.38;38.42;;;;;;;;;;5067070;28;20044;-81
2021/04/01 02:30:53;;;;;;;71.85;39.22;;;;;;;;;;5078862;28;20110;-81
2021/04/01 02:33:20;;;;;;;79.63;41.55;;;;;;;;;;5073354;28;20061;-81
2021/04/01 02:35:49;;;;;;;73.90;39.25;;;;;;;;;;5057305;28;20169;-81
2021/04/01 02:38:15;;;;;;;71.63;38.63;;;;;;;;;;5057414;28;20110;-81
2021/04/01 02:40:50;;;;;;;68.88;37.72;;;;;;;;;;5074943;28;20056;-81
2021/04/01 02:43:23;;;;;;;76.30;39.35;;;;;;;;;;5056668;28;20055;-80
2021/04/01 02:46:08;;;;;;;79.68;38.97;;;;;;;;;;5059859;28;20142;-82
2021/04/01 02:48:34;;;;;;;71.55;37.38;;;;;;;;;;5091676;28;20102;-81
2021/04/01 02:51:06;;;;;;;76.47;39.25;;;;;;;;;;5074546;28;20056;-81
2021/04/01 02:53:32;;;;;;;73.53;36.90;;;;;;;;;;5041481;28;20053;-81
2021/04/01 02:56:01;;;;;;;72.30;38.05;;;;;;;;;;5037306;28;20135;-82
2021/04/01 02:58:28;;;;;;;70.53;38.78;;;;;;;;;;5036742;28;20057;-82
2021/04/01 03:00:55;;;;;;;82.32;40.75;;;;;;;;;;5019477;28;20088;-81
2021/04/01 03:03:26;;;;;;;70.85;38.00;;;;;;;;;;5017193;28;20095;-81
2021/04/01 03:05:52;;;;;;;74.15;39.45;;;;;;;;;;5034431;28;20115;-81
2021/04/01 03:08:21;;;;;;;83.20;41.35;;;;;;;;;;5034718;28;20380;-81
2021/04/01 03:10:48;;;;;;;72.45;38.40;;;;;;;;;;5033695;28;20053;-81
2021/04/01 03:13:14;;;;;;;77.13;40.83;;;;;;;;;;5015634;28;20068;-81
2021/04/01 03:15:50;;;;;;;72.25;40.25;;;;;;;;;;5018116;28;20093;-81
2021/04/01 03:18:19;;;;;;;74.68;40.13;;;;;;;;;;5035439;28;20064;-81
2021/04/01 03:20:46;;;;;;;73.57;40.25;;;;;;;;;;5036269;28;20057;-81
2021/04/01 03:23:15;;;;;;;81.05;41.00;;;;;;;;;;5021434;28;20107;-82
2021/04/01 03:25:42;;;;;;;77.47;41.50;;;;;;;;;;5023575;28;20397;-82
2021/04/01 03:28:11;;;;;;;83.47;43.03;;;;;;;;;;5024053;28;20045;-82
2021/04/01 03:30:43;;;;;;;82.45;40.50;;;;;;;;;;5038182;28;20057;-82
2021/04/01 03:33:10;;;;;;;85.68;42.50;;;;;;;;;;5053597;28;20108;-82
2021/04/01 03:35:39;;;;;;;82.15;42.00;;;;;;;;;;5049602;28;20050;-82
2021/04/01 03:38:06;;;;;;;83.47;41.45;;;;;;;;;;5022707;28;20049;-81
2021/04/01 03:40:34;;;;;;;78.60;41.60;;;;;;;;;;5037491;28;20056;-82
2021/04/01 03:43:00;;;;;;;81.85;42.40;;;;;;;;;;5037539;28;20053;-81
2021/04/01 03:45:28;;;;;;;82.13;43.67;;;;;;;;;;5026891;28;20057;-82
2021/04/01 03:47:57;;;;;;;81.28;43.70;;;;;;;;;;5050467;28;20130;-82
2021/04/01 03:50:23;;;;;;;85.40;43.78;;;;;;;;;;5048169;28;20225;-82
2021/04/01 03:52:49;;;;;;;87.72;45.08;;;;;;;;;;5020575;28;20045;-82
2021/04/01 03:56:00;;;;;;;91.90;47.65;;;;;;;;;;5020998;28;20125;-82
2021/04/01 04:06:29;;;;;;;79.63;43.13;;;;;;;;;;5063974;28;20045;-80
2021/04/01 04:11:43;;;;;;;87.57;44.45;;;;;;;;;;5060847;28;20040;-80
2021/04/01 04:14:27;;;;;;;81.93;44.38;;;;;;;;;;5039624;28;20337;-81
2021/04/01 04:17:07;;;;;;;89.50;44.65;;;;;;;;;;5059854;28;20190;-82
2021/04/01 04:19:33;;;;;;;101.28;44.35;;;;;;;;;;5070725;28;20108;-82
2021/04/01 04:21:59;;;;;;;96.78;43.58;;;;;;;;;;5060381;28;20070;-82
2021/04/01 04:24:25;;;;;;;95.30;42.75;;;;;;;;;;5040889;28;20053;-82
2021/04/01 04:26:51;;;;;;;104.60;45.83;;;;;;;;;;5060346;28;20167;-83
2021/04/01 04:29:23;;;;;;;98.03;43.70;;;;;;;;;;5059867;28;20408;-81
2021/04/01 04:31:51;;;;;;;100.40;43.28;;;;;;;;;;5077456;28;20059;-82
2021/04/01 04:34:17;;;;;;;109.22;45.20;;;;;;;;;;5057006;28;20219;-82
2021/04/01 04:36:43;;;;;;;105.93;45.80;;;;;;;;;;5060889;28;20363;-82
2021/04/01 04:39:09;;;;;;;102.50;45.42;;;;;;;;;;5058180;28;20188;-82
2021/04/01 04:41:38;;;;;;;104.63;43.83;;;;;;;;;;5056829;28;20055;-85
2021/04/01 04:44:06;;;;;;;105.97;44.60;;;;;;;;;;5076678;28;20113;-82
2021/04/01 04:46:32;;;;;;;110.40;44.30;;;;;;;;;;5088509;28;20087;-81
2021/04/01 04:48:58;;;;;;;103.40;45.85;;;;;;;;;;5070482;28;20053;-82
2021/04/01 04:51:27;;;;;;;103.78;46.10;;;;;;;;;;5084840;28;20258;-81
2021/04/01 04:53:53;;;;;;;106.05;46.22;;;;;;;;;;5075389;28;20049;-82
2021/04/01 04:56:31;;;;;;;103.45;46.75;;;;;;;;;;5055797;28;20424;-82
2021/04/01 04:59:11;;;;;;;103.78;44.47;;;;;;;;;;5056097;28;20071;-82
2021/04/01 05:07:03;;;;;;;109.88;48.72;;;;;;;;;;5073907;28;20071;-82
2021/04/01 05:09:29;;;;;;;110.30;48.35;;;;;;;;;;5073138;28;20044;-82
2021/04/01 05:12:01;;;;;;;106.53;47.83;;;;;;;;;;5057080;28;20060;-82
2021/04/01 05:14:30;;;;;;;108.97;48.28;;;;;;;;;;5059418;28;20056;-83
2021/04/01 05:16:56;;;;;;;111.22;50.10;;;;;;;;;;5070537;28;20181;-82
2021/04/01 05:19:24;;;;;;;109.35;49.05;;;;;;;;;;5071067;28;20135;-82
2021/04/01 05:24:25;;;;;;;107.07;49.55;;;;;;;;;;5072094;28;20055;-82
2021/04/01 05:29:25;;;;;;;113.32;51.00;;;;;;;;;;5057948;28;20049;-82
2021/04/01 05:31:51;;;;;;;111.88;52.35;;;;;;;;;;5054326;28;20048;-82
2021/04/01 05:34:23;;;;;;;114.85;52.58;;;;;;;;;;5035671;28;20117;-83
2021/04/01 05:36:49;;;;;;;114.00;52.60;;;;;;;;;;5041949;28;20045;-82
2021/04/01 05:39:26;;;;;;;113.20;50.85;;;;;;;;;;5071140;28;20180;-82
2021/04/01 05:41:53;;;;;;;111.47;50.47;;;;;;;;;;5050782;28;20242;-82
2021/04/01 05:44:41;;;;;;;105.47;50.85;;;;;;;;;;5051545;28;20141;-82
2021/04/01 05:47:17;;;;;;;112.07;52.20;;;;;;;;;;5064065;28;20067;-82
2021/04/01 06:03:43;;;;;;;116.47;55.17;;;;;;;;;;5073158;28;20091;-82
2021/04/01 06:06:12;;;;;;;121.47;56.83;;;;;;;;;;5052695;28;20113;-82
2021/04/01 06:08:51;;;;;;;128.80;57.60;;;;;;;;;;5048353;28;20133;-83
2021/04/01 06:11:21;;;;;;;126.15;58.83;;;;;;;;;;5048894;28;20135;-82
2021/04/01 06:14:13;;;;;;;126.20;58.20;;;;;;;;;;5067860;28;20114;-83
2021/04/01 06:16:47;;;;;;;126.22;58.33;;;;;;;;;;5051204;28;20040;-83
2021/04/01 06:19:15;;;;;;;127.93;61.58;;;;;;;;;;5051506;28;20135;-83
2021/04/01 06:21:47;;;;;;;124.60;58.85;;;;;;;;;;5065441;28;20044;-81
2021/04/01 06:24:14;;;;;;;123.40;60.30;;;;;;;;;;5050931;28;20044;-81
2021/04/01 06:26:53;;;;;;;116.15;55.63;;;;;;;;;;5068305;28;20163;-83
2021/04/01 06:29:20;;;;;;;115.82;57.80;;;;;;;;;;5059870;28;20570;-79
2021/04/01 06:32:25;;;;;;;118.53;59.05;;;;;;;;;;5052682;28;20056;-79
2021/04/01 06:34:53;;;;;;;119.05;59.40;;;;;;;;;;5010181;28;20077;-78
2021/04/01 06:37:50;;;;;;;124.93;61.22;;;;;;;;;;5006754;28;20486;-78
2021/04/01 06:40:13;;;;;;;128.50;60.15;;;;;;;;;;5051086;28;20368;-79
2021/04/01 06:42:47;;;;;;;122.35;60.95;;;;;;;;;;5080918;28;20052;-78
2021/04/01 06:45:15;;;;;;;134.75;62.80;;;;;;;;;;5066261;28;20041;-78
2021/04/01 06:47:54;;;;;;;156.35;69.38;;;;;;;;;;5038729;28;20298;-78
2021/04/01 06:50:28;;;;;;;149.02;66.97;;;;;;;;;;5069727;28;20467;-80
2021/04/01 06:53:11;;;;;;;149.35;70.60;;;;;;;;;;5072492;28;20055;-79
2021/04/01 06:58:46;;;;;;;151.00;70.65;;;;;;;;;;5094583;28;20048;-79
2021/04/01 07:01:40;;;;;;;148.50;69.68;;;;;;;;;;5093496;28;20118;-79
2021/04/01 07:04:10;;;;;;;148.13;71.20;;;;;;;;;;5096472;28;20052;-80
2021/04/01 07:06:49;;;;;;;144.05;69.88;;;;;;;;;;5100914;28;20098;-79
2021/04/01 07:12:15;;;;;;;140.30;66.32;;;;;;;;;;5094414;28;20129;-79
2021/04/01 07:14:47;;;;;;;136.65;66.43;;;;;;;;;;5054705;28;20053;-79
2021/04/01 07:17:32;;;;;;;134.82;64.50;;;;;;;;;;5064858;28;20053;-80
2021/04/01 07:48:43;;;;;;;51.75;20.67;;;;;;;;;;5074036;28;20055;-80
2021/04/01 07:52:08;;;;;;;38.03;18.70;;;;;;;;;;5055370;28;20432;-81
2021/04/01 07:54:11;;;;;;;25.52;10.98;;;;;;;;;;5068458;28;20056;-81
2021/04/01 07:59:25;;;;;;;20.38;5.90;;;;;;;;;;5077883;28;20256;-81
2021/04/01 08:04:40;;;;;;;14.75;4.68;;;;;;;;;;5073786;28;20229;-79
2021/04/01 08:07:11;;;;;;;19.88;4.30;;;;;;;;;;5074456;28;20253;-79
2021/04/01 08:09:41;;;;;;;12.63;3.70;;;;;;;;;;5063083;28;20375;-80
2021/04/01 08:12:14;;;;;;;20.50;3.53;;;;;;;;;;5071867;28;20484;-79
2021/04/01 08:14:41;;;;;;;19.60;3.83;;;;;;;;;;5078089;28;20054;-80
2021/04/01 08:17:16;;;;;;;15.52;3.60;;;;;;;;;;5064077;28;20262;-79
2021/04/01 08:19:46;;;;;;;15.98;4.25;;;;;;;;;;5063394;28;20048;-79
2021/04/01 08:22:28;;;;;;;23.00;4.20;;;;;;;;;;5066404;28;20124;-78
2021/04/01 08:25:18;;;;;;;27.02;4.22;;;;;;;;;;5075009;28;20080;-79
2021/04/01 08:28:22;;;;;;;19.50;3.80;;;;;;;;;;5052196;28;20165;-81
2021/04/01 08:37:14;;;;;;;20.42;4.30;;;;;;;;;;5062174;28;20071;-81
2021/04/01 08:40:00;;;;;;;20.30;5.05;;;;;;;;;;5062855;28;20078;-79
2021/04/01 08:42:53;;;;;;;13.27;3.70;;;;;;;;;;5042953;28;20348;-80
2021/04/01 08:46:03;;;;;;;28.85;3.83;;;;;;;;;;5039320;28;20131;-80
2021/04/01 08:49:09;;;;;;;21.50;3.88;;;;;;;;;;5042128;28;20661;-80
2021/04/01 08:51:38;;;;;;;22.08;6.93;;;;;;;;;;5039687;28;20045;-79
2021/04/01 08:54:22;;;;;;;18.55;7.47;;;;;;;;;;5040513;28;20064;-78
2021/04/01 08:57:00;;;;;;;17.42;6.45;;;;;;;;;;5040821;28;20060;-78
2021/04/01 08:59:47;;;;;;;17.25;6.10;;;;;;;;;;5034298;28;20053;-80
2021/04/01 09:02:17;;;;;;;14.48;6.28;;;;;;;;;;5041178;28;20041;-79
2021/04/01 09:04:50;;;;;;;13.05;5.68;;;;;;;;;;5057613;28;20118;-79
2021/04/01 09:07:27;;;;;;;18.38;4.15;;;;;;;;;;5039264;28;20067;-80
2021/04/01 09:10:17;;;;;;;13.00;3.47;;;;;;;;;;5053806;28;20111;-79
2021/04/01 09:12:56;;;;;;;12.73;4.13;;;;;;;;;;5037724;28;20052;-79
2021/04/01 09:17:49;;;;;;;12.27;4.15;;;;;;;;;;5052359;28;20045;-79
2021/04/01 09:20:18;;;;;;;13.98;3.80;;;;;;;;;;5030701;28;20052;-80
2021/04/01 09:22:49;;;;;;;14.90;3.85;;;;;;;;;;5048063;28;20049;-80
2021/04/01 09:25:19;;;;;;;12.75;3.13;;;;;;;;;;5040829;28;20174;-79
2021/04/01 09:28:00;;;;;;;11.25;3.35;;;;;;;;;;5015369;28;20052;-80
2021/04/01 09:30:26;;;;;;;20.23;2.90;;;;;;;;;;5046535;28;20177;-80
2021/04/01 09:32:57;;;;;;;14.95;3.28;;;;;;;;;;5036628;28;20057;-80
2021/04/01 09:35:24;;;;;;;13.77;2.60;;;;;;;;;;5059960;28;20101;-80
2021/04/01 09:37:53;;;;;;;17.42;3.20;;;;;;;;;;5047582;28;20050;-80
2021/04/01 09:40:19;;;;;;;8.95;2.17;;;;;;;;;;5037598;28;20057;-80
2021/04/01 09:42:48;;;;;;;6.10;2.17;;;;;;;;;;5055882;28;20075;-79
2021/04/01 09:45:26;;;;;;;10.10;2.20;;;;;;;;;;5031848;28;20049;-79
2021/04/01 09:48:00;;;;;;;8.88;2.13;;;;;;;;;;5050134;28;20094;-79
2021/04/01 09:50:35;;;;;;;8.10;1.65;;;;;;;;;;5049211;28;20368;-80
2021/04/01 09:53:11;;;;;;;14.13;1.88;;;;;;;;;;5058108;28;20355;-80
2021/04/01 09:55:42;;;;;;;8.95;1.65;;;;;;;;;;5041850;28;20056;-80
2021/04/01 09:58:21;;;;;;;4.55;1.50;;;;;;;;;;5047840;28;20044;-80
2021/04/01 10:03:49;;;;;;;8.82;1.80;;;;;;;;;;5064240;28;20744;-80
2021/04/01 10:06:35;;;;;;;10.50;2.10;;;;;;;;;;5069703;28;20510;-79
2021/04/01 10:09:12;;;;;;;5.88;2.30;;;;;;;;;;5051517;28;20052;-80
2021/04/01 10:11:49;;;;;;;10.23;2.95;;;;;;;;;;5050854;28;20139;-79
2021/04/01 10:14:28;;;;;;;7.35;2.20;;;;;;;;;;5070604;28;20060;-80
2021/04/01 10:17:14;;;;;;;12.45;1.90;;;;;;;;;;5072631;28;20108;-80
2021/04/01 10:19:48;;;;;;;9.75;1.90;;;;;;;;;;5055137;28;20542;-80
2021/04/01 10:22:38;;;;;;;10.73;1.90;;;;;;;;;;5055803;28;20228;-79
2021/04/01 10:25:09;;;;;;;11.32;2.08;;;;;;;;;;5053897;28;20052;-79
2021/04/01 10:27:42;;;;;;;7.88;2.35;;;;;;;;;;5060814;28;20056;-80
2021/04/01 10:30:09;;;;;;;9.13;2.05;;;;;;;;;;5077608;28;20052;-79
2021/04/01 10:32:53;;;;;;;8.65;2.33;;;;;;;;;;5059387;28;20547;-81
2021/04/01 10:35:27;;;;;;;7.63;2.28;;;;;;;;;;5059958;28;20040;-80
2021/04/01 10:37:58;;;;;;;10.20;2.53;;;;;;;;;;5082247;28;20045;-81
2021/04/01 10:40:25;;;;;;;10.32;1.80;;;;;;;;;;5086672;28;20104;-79
2021/04/01 10:43:10;;;;;;;6.20;1.85;;;;;;;;;;5079699;28;20083;-81
2021/04/01 10:45:38;;;;;;;10.48;1.80;;;;;;;;;;5074529;28;20126;-80
2021/04/01 10:48:11;;;;;;;14.43;2.08;;;;;;;;;;5059758;28;20090;-80
2021/04/01 10:50:38;;;;;;;4.57;1.60;;;;;;;;;;5057535;28;20048;-78
2021/04/01 10:53:04;;;;;;;8.70;2.03;;;;;;;;;;5056636;28;20048;-80
2021/04/01 10:55:31;;;;;;;6.95;1.67;;;;;;;;;;5074706;28;20044;-81
2021/04/01 10:58:07;;;;;;;7.50;1.60;;;;;;;;;;5075451;28;20094;-79
2021/04/01 11:00:33;;;;;;;6.40;1.73;;;;;;;;;;5072606;28;20420;-78
2021/04/01 11:03:01;;;;;;;8.60;2.10;;;;;;;;;;5054758;28;20058;-79
2021/04/01 11:05:31;;;;;;;6.25;1.73;;;;;;;;;;5061530;28;20049;-80
2021/04/01 11:08:07;;;;;;;8.73;2.08;;;;;;;;;;5053775;28;20040;-80
2021/04/01 11:10:34;;;;;;;7.10;1.92;;;;;;;;;;5064238;28;20053;-78
2021/04/01 11:13:19;;;;;;;7.80;1.88;;;;;;;;;;5044285;28;20045;-79
2021/04/01 11:15:49;;;;;;;8.88;2.00;;;;;;;;;;5052837;28;20060;-80
2021/04/01 11:18:18;;;;;;;16.92;2.22;;;;;;;;;;5036045;28;20041;-79
2021/04/01 11:20:51;;;;;;;9.38;1.42;;;;;;;;;;5061448;28;20053;-80
2021/04/01 11:23:21;;;;;;;8.85;1.90;;;;;;;;;;5052928;28;20055;-79
2021/04/01 11:25:50;;;;;;;5.13;1.20;;;;;;;;;;5052735;28;20060;-79
2021/04/01 11:28:19;;;;;;;4.68;1.85;;;;;;;;;;5051460;28;20049;-80
2021/04/01 11:30:50;;;;;;;7.70;1.75;;;;;;;;;;5052696;28;20440;-79
2021/04/01 11:33:19;;;;;;;7.95;1.63;;;;;;;;;;5070483;28;20120;-79
2021/04/01 11:36:00;;;;;;;6.95;1.67;;;;;;;;;;5051472;28;20056;-79
2021/04/01 11:38:28;;;;;;;9.40;1.90;;;;;;;;;;5050897;28;20091;-79
2021/04/01 11:40:57;;;;;;;7.00;1.92;;;;;;;;;;5048681;28;20103;-80
2021/04/01 11:43:33;;;;;;;6.72;2.10;;;;;;;;;;5077579;28;20104;-77
2021/04/01 11:46:29;;;;;;;7.57;1.60;;;;;;;;;;5037956;28;20068;-80
2021/04/01 11:48:58;;;;;;;6.55;2.63;;;;;;;;;;5000505;28;20394;-79
2021/04/01 11:51:26;;;;;;;7.88;2.05;;;;;;;;;;5054634;28;20335;-78
2021/04/01 11:53:53;;;;;;;9.90;1.85;;;;;;;;;;5053687;28;20222;-78
2021/04/01 11:56:20;;;;;;;7.57;1.55;;;;;;;;;;5054025;28;20044;-80
2021/04/01 11:58:46;;;;;;;7.88;2.05;;;;;;;;;;5051839;28;20345;-79
2021/04/01 12:01:19;;;;;;;5.25;1.20;;;;;;;;;;5052912;28;20095;-79
2021/04/01 12:04:08;;;;;;;7.57;1.20;;;;;;;;;;5052046;28;20059;-78
2021/04/01 12:06:36;;;;;;;6.60;1.20;;;;;;;;;;5049093;28;20119;-78
2021/04/01 12:09:06;;;;;;;3.13;1.33;;;;;;;;;;5090654;28;20225;-81
2021/04/01 12:11:44;;;;;;;9.07;1.65;;;;;;;;;;5098377;28;20051;-79
2021/04/01 12:14:15;;;;;;;7.30;1.55;;;;;;;;;;5078049;28;20052;-79
2021/04/01 12:16:43;;;;;;;7.88;1.40;;;;;;;;;;5069200;28;20421;-81
2021/04/01 12:19:09;;;;;;;8.48;1.65;;;;;;;;;;5052764;28;20348;-79
2021/04/01 12:21:37;;;;;;;8.57;1.52;;;;;;;;;;5053521;28;20064;-80
2021/04/01 12:24:16;;;;;;;3.50;1.38;;;;;;;;;;5041271;28;20401;-80
2021/04/01 12:26:45;;;;;;;5.57;1.70;;;;;;;;;;5052911;28;20471;-80
2021/04/01 12:29:11;;;;;;;6.68;1.70;;;;;;;;;;5046952;28;20083;-81
2021/04/01 12:31:39;;;;;;;6.35;1.90;;;;;;;;;;5036572;28;20060;-82
2021/04/01 12:34:11;;;;;;;11.90;2.15;;;;;;;;;;5050055;28;20045;-81
2021/04/01 12:36:38;;;;;;;6.20;1.10;;;;;;;;;;5032898;28;20049;-81
2021/04/01 12:39:10;;;;;;;5.78;1.83;;;;;;;;;;5031973;28;20392;-80
2021/04/01 12:41:39;;;;;;;5.10;1.90;;;;;;;;;;5032637;28;20076;-80
2021/04/01 12:44:06;;;;;;;5.55;1.30;;;;;;;;;;5048985;28;20228;-80
2021/04/01 12:46:47;;;;;;;10.07;1.92;;;;;;;;;;5059863;28;20157;-81
2021/04/01 12:49:19;;;;;;;4.57;1.80;;;;;;;;;;5069085;28;20098;-81
2021/04/01 12:51:49;;;;;;;3.05;1.40;;;;;;;;;;5038309;28;20056;-81
2021/04/01 12:54:23;;;;;;;4.97;1.65;;;;;;;;;;5068478;28;20113;-81
2021/04/01 12:56:55;;;;;;;3.78;1.77;;;;;;;;;;5064186;28;20116;-80
2021/04/01 12:59:31;;;;;;;4.95;1.33;;;;;;;;;;5065718;28;20248;-80
2021/04/01 13:02:11;;;;;;;7.03;1.20;;;;;;;;;;5071943;28;20044;-81
2021/04/01 13:04:51;;;;;;;2.55;1.45;;;;;;;;;;5042694;28;20061;-81
2021/04/01 13:07:28;;;;;;;3.15;1.40;;;;;;;;;;5040692;28;20036;-81
2021/04/01 13:12:24;;;;;;;2.17;1.27;;;;;;;;;;5079275;28;20041;-81
2021/04/01 13:14:54;;;;;;;4.10;1.50;;;;;;;;;;5052677;28;20052;-82
2021/04/01 13:17:20;;;;;;;5.88;1.60;;;;;;;;;;5065004;28;20147;-81
2021/04/01 13:19:51;;;;;;;6.15;1.75;;;;;;;;;;5066714;28;20416;-81
2021/04/01 13:22:28;;;;;;;3.97;1.30;;;;;;;;;;5067063;28;20102;-80
2021/04/01 13:25:13;;;;;;;3.20;1.60;;;;;;;;;;5053782;28;20385;-82
2021/04/01 13:27:43;;;;;;;7.60;1.52;;;;;;;;;;5053949;28;20040;-81
2021/04/01 13:30:14;;;;;;;8.73;1.70;;;;;;;;;;5053511;28;20355;-80
2021/04/01 13:37:47;;;;;;;9.77;1.45;;;;;;;;;;5064150;28;20064;-81
2021/04/01 13:40:18;;;;;;;8.40;1.70;;;;;;;;;;5086590;28;20048;-81
2021/04/01 13:42:48;;;;;;;4.85;1.77;;;;;;;;;;5074923;28;20377;-81
2021/04/01 13:45:17;;;;;;;8.73;2.03;;;;;;;;;;5077951;28;20059;-81
2021/04/01 13:47:51;;;;;;;3.88;1.48;;;;;;;;;;5083122;28;20223;-80
2021/04/01 13:50:24;;;;;;;10.32;1.98;;;;;;;;;;5073433;28;20110;-81
2021/04/01 13:55:52;;;;;;;13.25;2.33;;;;;;;;;;5073049;28;20211;-81
2021/04/01 14:09:39;;;;;;;9.43;2.75;;;;;;;;;;5017910;28;20049;-80
2021/04/01 14:12:07;;;;;;;7.43;2.13;;;;;;;;;;5065656;28;20084;-81
2021/04/01 14:14:35;;;;;;;7.40;2.92;;;;;;;;;;5034976;28;20466;-80
2021/04/01 14:17:04;;;;;;;6.68;2.63;;;;;;;;;;5050189;28;20132;-80
2021/04/01 14:19:38;;;;;;;12.18;2.53;;;;;;;;;;5040716;28;20068;-82
2021/04/01 14:22:08;;;;;;;9.15;2.92;;;;;;;;;;5070033;28;20078;-81
2021/04/01 14:27:11;;;;;;;6.38;2.72;;;;;;;;;;5061212;28;20255;-80
2021/04/01 14:29:38;;;;;;;;;;;;;;;;;;5051073;28;20136;-80
2021/04/01 14:32:05;;;;;;;9.63;3.90;;;;;;;;;;5045595;28;19980;-80
2021/04/01 14:34:33;;;;;;;9.18;3.42;;;;;;;;;;5053463;28;20581;-80
2021/04/01 14:37:01;;;;;;;11.07;4.10;;;;;;;;;;5047671;28;20439;-80
2021/04/01 14:39:31;;;;;;;8.65;4.30;;;;;;;;;;5047527;28;20126;-80
2021/04/01 14:42:05;;;;;;;8.45;4.10;;;;;;;;;;5030969;28;20508;-81
2021/04/01 14:44:32;;;;;;;8.98;3.55;;;;;;;;;;5033796;28;20045;-81
2021/04/01 14:47:02;;;;;;;12.82;3.60;;;;;;;;;;5067674;28;20051;-81
2021/04/01 14:49:30;;;;;;;9.35;3.53;;;;;;;;;;5069234;28;20053;-81
2021/04/01 14:51:59;;;;;;;8.35;3.80;;;;;;;;;;5060246;28;20045;-80
2021/04/01 14:54:33;;;;;;;9.73;4.20;;;;;;;;;;5075846;28;20108;-81
2021/04/01 14:57:08;;;;;;;13.15;4.43;;;;;;;;;;5073426;28;20073;-81
2021/04/01 14:59:41;;;;;;;16.40;4.18;;;;;;;;;;5068654;28;20091;-81
2021/04/01 15:02:12;;;;;;;10.20;4.90;;;;;;;;;;5067987;28;20056;-80
2021/04/01 15:04:42;;;;;;;7.38;4.78;;;;;;;;;;5067741;28;20162;-81
2021/04/01 15:07:14;;;;;;;8.60;4.15;;;;;;;;;;5049073;28;20282;-81
2021/04/01 15:09:43;;;;;;;11.13;5.63;;;;;;;;;;5052599;28;20344;-80
2021/04/01 15:12:10;;;;;;;8.77;4.70;;;;;;;;;;5067283;28;20567;-81
2021/04/01 15:14:36;;;;;;;8.45;3.88;;;;;;;;;;5040717;28;20102;-81
2021/04/01 15:17:03;;;;;;;7.63;4.22;;;;;;;;;;5045705;28;20069;-81
2021/04/01 15:19:32;;;;;;;11.65;4.28;;;;;;;;;;5046609;28;20076;-81
2021/04/01 15:21:58;;;;;;;13.50;4.97;;;;;;;;;;5068172;28;20400;-81
2021/04/01 15:24:24;;;;;;;12.55;4.35;;;;;;;;;;5035018;28;20045;-81
2021/04/01 15:26:51;;;;;;;8.35;4.28;;;;;;;;;;5031435;28;20059;-80
2021/04/01 15:29:17;;;;;;;9.60;3.80;;;;;;;;;;5051633;28;20394;-80
2021/04/01 15:31:43;;;;;;;8.65;4.28;;;;;;;;;;5037453;28;20307;-79
2021/04/01 15:34:11;;;;;;;7.07;3.90;;;;;;;;;;5056333;28;20085;-79
2021/04/01 15:36:39;;;;;;;4.65;3.10;;;;;;;;;;5065379;28;20040;-81
2021/04/01 15:39:07;;;;;;;3.80;2.35;;;;;;;;;;5070822;28;20052;-81
2021/04/01 15:41:41;;;;;;;2.97;2.15;;;;;;;;;;5054199;28;20048;-80
2021/04/01 15:44:08;;;;;;;5.45;2.60;;;;;;;;;;5051160;28;20178;-81
2021/04/01 15:46:34;;;;;;;4.15;2.40;;;;;;;;;;5052989;28;20192;-81
2021/04/01 15:49:01;;;;;;;5.32;2.33;;;;;;;;;;5069191;28;20083;-80
2021/04/01 15:51:33;;;;;;;5.20;2.47;;;;;;;;;;5069731;28;20232;-80
2021/04/01 15:54:01;;;;;;;2.80;2.22;;;;;;;;;;5050067;28;20143;-82
2021/04/01 15:56:30;;;;;;;6.07;3.08;;;;;;;;;;5070910;28;20105;-80
2021/04/01 15:58:56;;;;;;;5.10;3.72;;;;;;;;;;5054199;28;20071;-80
2021/04/01 16:01:25;;;;;;;6.10;2.80;;;;;;;;;;5050971;28;20179;-80
2021/04/01 16:04:05;;;;;;;9.85;4.13;;;;;;;;;;5053968;28;20263;-81
2021/04/01 16:06:31;;;;;;;6.63;3.10;;;;;;;;;;5053364;28;20135;-80
2021/04/01 16:08:58;;;;;;;11.20;5.43;;;;;;;;;;5069375;28;20056;-81
2021/04/01 16:11:30;;;;;;;14.75;5.30;;;;;;;;;;5051498;28;20044;-80
2021/04/01 16:14:00;;;;;;;11.63;3.80;;;;;;;;;;5062052;28;20401;-80
2021/04/01 16:16:33;;;;;;;9.70;3.45;;;;;;;;;;5066218;28;20254;-80
2021/04/01 16:18:59;;;;;;;10.88;3.30;;;;;;;;;;5070932;28;20052;-80
2021/04/01 16:21:28;;;;;;;11.23;3.42;;;;;;;;;;5064841;28;20056;-80
2021/04/01 16:23:57;;;;;;;11.32;3.42;;;;;;;;;;5038103;28;20436;-80
2021/04/01 16:26:23;;;;;;;9.90;3.70;;;;;;;;;;5054208;28;20056;-81
2021/04/01 16:28:54;;;;;;;10.57;3.50;;;;;;;;;;5056078;28;20048;-81
2021/04/01 16:31:26;;;;;;;13.32;3.40;;;;;;;;;;5053957;28;20457;-80
2021/04/01 16:33:54;;;;;;;15.88;3.25;;;;;;;;;;5077814;28;20052;-80
2021/04/01 16:36:23;;;;;;;13.80;3.70;;;;;;;;;;5089922;28;20052;-81
2021/04/01 16:38:52;;;;;;;26.02;7.85;;;;;;;;;;5088545;28;20160;-80
2021/04/01 16:41:21;;;;;;;12.27;3.55;;;;;;;;;;5098252;28;20229;-80
2021/04/01 16:43:48;;;;;;;17.60;3.58;;;;;;;;;;5096745;28;20061;-79